Time;durP1;ratioP1;P1;durP2;ratioP2;P2;SDS_P1;SDS_P2;PMS_P1;PMS_P2;Temp;Humidity;BMP_temperature;BMP_pressure;BME280_temperature;BME280_humidity;BME280_pressure;Samples;Min_cycle;Max_cycle;Signal;HPM_P1;HPM_P2
2023/12/05 00:01:37;;;;;;;24.92;18.73;;;;;;;2.18;100.00;99908.41;5032131;28;20044;-73
2023/12/05 00:04:03;;;;;;;24.33;17.38;;;;;;;2.21;100.00;99905.75;5032845;28;20037;-73
2023/12/05 00:06:29;;;;;;;24.25;17.63;;;;;;;2.24;100.00;99909.13;5033066;28;20037;-73
2023/12/05 00:08:54;;;;;;;28.60;19.10;;;;;;;2.24;100.00;99900.53;5033800;28;20568;-73
2023/12/05 00:11:20;;;;;;;26.88;18.10;;;;;;;2.26;100.00;99904.78;5033815;28;20363;-73
2023/12/05 00:13:45;;;;;;;25.58;18.35;;;;;;;2.27;100.00;99905.63;5033446;28;20064;-73
2023/12/05 00:16:10;;;;;;;26.15;18.70;;;;;;;2.28;100.00;99904.75;5032640;28;20086;-73
2023/12/05 00:18:37;;;;;;;26.50;19.73;;;;;;;2.29;100.00;99906.44;5033456;28;20097;-73
2023/12/05 00:21:03;;;;;;;25.95;18.45;;;;;;;2.34;100.00;99911.50;5033374;28;20033;-73
2023/12/05 00:23:28;;;;;;;26.73;19.10;;;;;;;2.36;100.00;99908.00;5033044;28;20049;-73
2023/12/05 00:25:54;;;;;;;31.23;20.77;;;;;;;2.38;100.00;99900.22;5034009;28;20145;-73
2023/12/05 00:28:19;;;;;;;28.58;20.13;;;;;;;2.32;100.00;99897.78;5033932;28;20045;-73
2023/12/05 00:30:44;;;;;;;30.05;20.83;;;;;;;2.32;100.00;99898.63;5034302;28;20043;-73
2023/12/05 00:33:09;;;;;;;29.83;20.48;;;;;;;2.33;100.00;99892.59;5034373;28;20229;-73
2023/12/05 00:35:35;;;;;;;28.45;20.13;;;;;;;2.36;100.00;99900.25;5033545;28;20331;-73
2023/12/05 00:38:00;;;;;;;30.25;20.38;;;;;;;2.35;100.00;99898.56;5033617;28;20336;-73
2023/12/05 00:40:29;;;;;;;30.70;20.52;;;;;;;2.33;100.00;99899.47;5033842;28;20368;-73
2023/12/05 00:42:55;;;;;;;;;;;;;;;2.39;100.00;99901.94;5034281;28;20352;-73
2023/12/05 00:45:21;;;;;;;30.48;20.50;;;;;;;2.36;100.00;99904.56;5033937;28;19923;-73
2023/12/05 00:47:46;;;;;;;31.33;21.23;;;;;;;2.38;100.00;99900.22;5033841;28;20033;-73
2023/12/05 00:50:11;;;;;;;33.47;21.35;;;;;;;2.35;100.00;99905.44;5033839;28;20105;-73
2023/12/05 00:52:37;;;;;;;33.03;21.98;;;;;;;2.35;100.00;99902.84;5033435;28;20232;-73
2023/12/05 00:55:03;;;;;;;32.20;21.00;;;;;;;2.36;100.00;99897.66;5034137;28;20033;-73
2023/12/05 00:57:28;;;;;;;29.70;21.30;;;;;;;2.35;100.00;99895.97;5033548;28;20093;-73
2023/12/05 00:59:54;;;;;;;32.83;21.13;;;;;;;2.34;100.00;99896.84;5034020;28;20302;-73
2023/12/05 01:02:19;;;;;;;30.80;20.48;;;;;;;2.37;100.00;99894.22;5034210;28;20025;-73
2023/12/05 01:04:45;;;;;;;29.42;20.42;;;;;;;2.42;100.00;99894.09;5033993;28;20044;-73
2023/12/05 01:07:12;;;;;;;33.88;20.95;;;;;;;2.42;100.00;99896.69;5033360;28;20037;-73
2023/12/05 01:09:39;;;;;;;29.83;20.70;;;;;;;2.45;100.00;99899.19;5033903;28;20060;-73
2023/12/05 01:12:05;;;;;;;29.73;20.73;;;;;;;2.44;100.00;99894.94;5033531;28;20332;-73
2023/12/05 01:14:30;;;;;;;29.23;19.90;;;;;;;2.43;100.00;99900.97;5033397;28;20242;-73
2023/12/05 01:16:56;;;;;;;30.38;20.70;;;;;;;2.47;100.00;99906.06;5033749;28;20026;-73
2023/12/05 01:19:21;;;;;;;32.05;20.67;;;;;;;2.48;100.00;99906.91;5033842;28;20358;-73
2023/12/05 01:21:46;;;;;;;32.22;21.15;;;;;;;2.46;100.00;99913.84;5035258;28;20033;-73
2023/12/05 01:24:12;;;;;;;31.00;20.95;;;;;;;2.48;100.00;99912.91;5037343;28;20549;-73
2023/12/05 01:26:37;;;;;;;30.67;21.13;;;;;;;2.47;100.00;99910.34;5036820;28;20241;-73
2023/12/05 01:29:04;;;;;;;30.73;19.88;;;;;;;2.49;100.00;99903.41;5037471;28;20391;-73
2023/12/05 01:31:30;;;;;;;33.22;20.83;;;;;;;2.43;100.00;99916.47;5036697;28;20191;-73
2023/12/05 01:33:55;;;;;;;28.73;19.85;;;;;;;2.45;100.00;99902.63;5037446;28;20029;-73
2023/12/05 01:36:21;;;;;;;28.85;19.88;;;;;;;2.45;100.00;99906.97;5037028;28;20466;-73
2023/12/05 01:38:46;;;;;;;31.02;20.42;;;;;;;2.46;100.00;99906.94;5036803;28;20087;-73
2023/12/05 01:41:11;;;;;;;31.67;21.08;;;;;;;2.39;100.00;99905.34;5036151;28;20100;-73
2023/12/05 01:43:37;;;;;;;29.27;20.17;;;;;;;2.46;100.00;99900.91;5036875;28;20203;-73
2023/12/05 01:46:04;;;;;;;30.38;20.60;;;;;;;2.49;100.00;99903.41;5036653;28;20037;-73
2023/12/05 01:48:31;;;;;;;31.42;20.25;;;;;;;2.50;100.00;99908.53;5036982;28;20045;-73
2023/12/05 01:50:57;;;;;;;31.67;20.65;;;;;;;2.53;100.00;99909.38;5036469;28;20029;-73
2023/12/05 01:53:23;;;;;;;33.53;21.17;;;;;;;2.49;100.00;99904.28;5037222;28;20040;-73
2023/12/05 01:55:50;;;;;;;29.08;20.73;;;;;;;2.49;100.00;99912.03;5036499;28;20029;-73
2023/12/05 01:58:16;;;;;;;30.13;20.63;;;;;;;2.50;100.00;99913.72;5036451;28;20048;-73
2023/12/05 02:00:42;;;;;;;32.17;20.95;;;;;;;2.47;100.00;99913.81;5036407;28;20275;-73
2023/12/05 02:03:08;;;;;;;31.80;21.75;;;;;;;2.47;100.00;99912.94;5036782;28;20041;-73
2023/12/05 02:05:34;;;;;;;30.58;20.45;;;;;;;2.44;100.00;99910.44;5036391;28;20249;-73
2023/12/05 02:08:00;;;;;;;32.33;21.27;;;;;;;2.45;100.00;99922.47;5036571;28;20041;-73
2023/12/05 02:10:26;;;;;;;34.15;22.58;;;;;;;2.44;100.00;99918.19;5036643;28;20382;-73
2023/12/05 02:12:51;;;;;;;33.35;22.38;;;;;;;2.49;100.00;99921.50;5036629;28;20044;-73
2023/12/05 02:15:16;;;;;;;32.13;21.02;;;;;;;2.48;100.00;99919.81;5036490;28;20092;-73
2023/12/05 02:18:01;;;;;;;30.63;21.27;;;;;;;2.40;100.00;99925.16;5035579;28;20609;-73
2023/12/05 02:20:50;;;;;;;33.45;21.83;;;;;;;2.52;100.00;99923.19;5035556;28;20268;-73
2023/12/05 02:23:21;;;;;;;;;;;;;;;2.49;100.00;99931.84;5020971;28;20053;-73
2023/12/05 02:25:53;;;;;;;36.75;21.63;;;;;;;2.49;100.00;99929.25;5035728;28;19927;-73
2023/12/05 02:28:19;;;;;;;34.88;22.30;;;;;;;2.45;100.00;99927.63;5035818;28;20355;-73
2023/12/05 02:30:45;;;;;;;36.97;22.80;;;;;;;2.40;100.00;99925.16;5035815;28;20416;-73
2023/12/05 02:33:10;;;;;;;40.83;24.23;;;;;;;2.35;100.00;99929.56;5034680;28;20217;-73
2023/12/05 02:35:37;;;;;;;35.13;23.20;;;;;;;2.40;100.00;99926.88;5035539;28;20049;-73
2023/12/05 02:38:18;;;;;;;38.40;22.30;;;;;;;2.44;100.00;99925.94;5035744;28;20025;-73
2023/12/05 02:41:07;;;;;;;34.63;22.23;;;;;;;2.46;100.00;99924.19;5035630;28;20060;-73
2023/12/05 02:43:46;;;;;;;35.47;22.83;;;;;;;2.48;100.00;99919.81;5035323;28;20073;-73
2023/12/05 02:46:16;;;;;;;37.15;24.02;;;;;;;2.49;100.00;99926.66;5035702;28;20367;-73
2023/12/05 02:48:42;;;;;;;37.92;23.35;;;;;;;2.53;100.00;99915.41;5035040;28;20044;-73
2023/12/05 02:51:08;;;;;;;36.22;23.00;;;;;;;2.48;100.00;99920.66;5035148;28;20116;-73
2023/12/05 02:53:33;;;;;;;33.95;22.30;;;;;;;2.50;100.00;99920.63;5035279;28;20371;-73
2023/12/05 02:55:59;;;;;;;34.92;22.00;;;;;;;2.47;100.00;99923.28;5035106;28;20037;-73
2023/12/05 02:58:25;;;;;;;34.42;22.35;;;;;;;2.37;100.00;99914.88;5035116;28;20037;-73
2023/12/05 03:00:50;;;;;;;34.60;21.35;;;;;;;2.39;100.00;99922.59;5035248;28;20292;-73
2023/12/05 03:03:15;;;;;;;32.97;22.00;;;;;;;2.45;100.00;99922.47;5035660;28;20117;-73
2023/12/05 03:05:41;;;;;;;32.03;22.10;;;;;;;2.48;100.00;99927.56;5034448;28;20041;-73
2023/12/05 03:08:06;;;;;;;35.58;21.42;;;;;;;2.44;100.00;99924.19;5034955;28;20044;-73
2023/12/05 03:10:31;;;;;;;35.47;21.75;;;;;;;2.39;100.00;99920.03;5034701;28;20260;-73
2023/12/05 03:12:57;;;;;;;32.60;20.40;;;;;;;2.40;100.00;99927.75;5034989;28;20221;-73
2023/12/05 03:15:22;;;;;;;34.60;22.05;;;;;;;2.37;100.00;99927.81;5035073;28;20048;-73
2023/12/05 03:17:47;;;;;;;33.38;21.83;;;;;;;2.40;100.00;99926.88;5034361;28;20033;-73
2023/12/05 03:20:14;;;;;;;34.55;22.40;;;;;;;2.40;100.00;99927.75;5035277;28;20381;-73
2023/12/05 03:22:39;;;;;;;32.72;22.25;;;;;;;2.43;100.00;99929.41;5034580;28;20254;-73
2023/12/05 03:25:05;;;;;;;33.63;21.48;;;;;;;2.41;100.00;99934.59;5035034;28;20033;-73
2023/12/05 03:27:31;;;;;;;30.83;19.75;;;;;;;2.38;100.00;99929.50;5034816;28;20030;-73
2023/12/05 03:29:56;;;;;;;29.25;19.92;;;;;;;2.37;100.00;99932.97;5035087;28;20048;-73
2023/12/05 03:32:21;;;;;;;30.02;20.00;;;;;;;2.24;100.00;99927.22;5034622;28;20239;-73
2023/12/05 03:34:47;;;;;;;29.95;19.95;;;;;;;2.29;100.00;99922.81;5034604;28;20064;-73
2023/12/05 03:37:12;;;;;;;30.00;19.88;;;;;;;2.20;100.00;99925.59;5033676;28;20048;-73
2023/12/05 03:39:38;;;;;;;27.15;18.27;;;;;;;2.20;100.00;99922.13;5034277;28;20163;-73
2023/12/05 03:42:03;;;;;;;30.15;19.08;;;;;;;2.15;100.00;99929.13;5034334;28;20038;-73
2023/12/05 03:44:29;;;;;;;29.70;19.83;;;;;;;2.20;100.00;99920.41;5034101;28;20105;-73
2023/12/05 03:46:54;;;;;;;31.67;20.33;;;;;;;2.19;100.00;99925.63;5034770;28;20337;-72
2023/12/05 03:49:19;;;;;;;28.73;18.85;;;;;;;2.09;100.00;99927.50;5034508;28;20359;-72
2023/12/05 03:51:45;;;;;;;30.60;18.83;;;;;;;2.11;100.00;99926.63;5034106;28;20387;-73
2023/12/05 03:54:10;;;;;;;29.65;19.50;;;;;;;2.08;100.00;99921.50;5034258;28;20033;-73
2023/12/05 03:56:35;;;;;;;30.25;18.80;;;;;;;2.09;100.00;99922.34;5034160;28;20278;-73
2023/12/05 03:59:00;;;;;;;27.95;18.85;;;;;;;2.15;100.00;99932.56;5034273;28;20248;-73
2023/12/05 04:01:26;;;;;;;28.55;18.02;;;;;;;2.15;100.00;99936.88;5033812;28;20222;-73
2023/12/05 04:03:51;;;;;;;29.90;20.05;;;;;;;2.07;100.00;99937.91;5034392;28;20032;-73
2023/12/05 04:06:21;;;;;;;31.13;19.70;;;;;;;2.06;100.00;99940.50;5033658;28;20388;-73
2023/12/05 04:08:47;;;;;;;28.88;18.67;;;;;;;2.09;100.00;99943.88;5033859;28;20037;-73
2023/12/05 04:11:13;;;;;;;30.13;19.27;;;;;;;2.07;100.00;99945.66;5033801;28;20279;-73
2023/12/05 04:13:38;;;;;;;28.98;18.88;;;;;;;2.10;100.00;99947.31;5034160;28;20039;-73
2023/12/05 04:16:05;;;;;;;28.83;18.90;;;;;;;2.14;100.00;99956.69;5034044;28;20114;-73
2023/12/05 04:18:31;;;;;;;29.10;19.02;;;;;;;2.07;100.00;99956.00;5033612;28;20036;-73
2023/12/05 04:20:56;;;;;;;28.27;18.60;;;;;;;2.15;100.00;99957.53;5033422;28;20037;-73
2023/12/05 04:23:21;;;;;;;26.73;17.80;;;;;;;2.12;100.00;99961.03;5033704;28;20099;-73
2023/12/05 04:25:47;;;;;;;25.75;17.67;;;;;;;2.12;100.00;99963.63;5033393;28;20238;-73
2023/12/05 04:28:12;;;;;;;27.50;17.67;;;;;;;2.05;100.00;99970.63;5034107;28;20381;-73
2023/12/05 04:30:37;;;;;;;24.90;17.10;;;;;;;2.01;100.00;99971.59;5033962;28;20061;-73
2023/12/05 04:33:03;;;;;;;26.02;17.40;;;;;;;1.95;100.00;99976.88;5033619;28;20220;-73
2023/12/05 04:35:28;;;;;;;25.85;17.52;;;;;;;2.04;100.00;99978.44;5034096;28;20049;-73
2023/12/05 04:37:53;;;;;;;25.25;16.58;;;;;;;2.05;100.00;99985.28;5033935;28;20035;-73
2023/12/05 04:40:19;;;;;;;26.48;17.77;;;;;;;2.04;100.00;99983.59;5034325;28;20033;-73
2023/12/05 04:42:44;;;;;;;25.23;17.20;;;;;;;1.99;100.00;99993.16;5033760;28;20101;-73
2023/12/05 04:45:10;;;;;;;27.20;17.70;;;;;;;1.99;100.00;99993.16;5033165;28;20224;-73
2023/12/05 04:47:35;;;;;;;26.02;15.98;;;;;;;2.02;100.00;99996.53;5033334;28;20037;-73
2023/12/05 04:50:00;;;;;;;26.17;16.35;;;;;;;2.06;100.00;99993.00;5033371;28;20063;-73
2023/12/05 04:52:26;;;;;;;28.00;16.63;;;;;;;2.06;100.00;99995.59;5033927;28;20108;-73
2023/12/05 04:54:51;;;;;;;25.40;16.77;;;;;;;2.09;100.00;99997.25;5034224;28;20041;-73
2023/12/05 04:57:16;;;;;;;25.10;16.70;;;;;;;2.12;100.00;99994.63;5036633;28;20038;-73
2023/12/05 04:59:42;;;;;;;22.92;16.10;;;;;;;2.11;100.00;100001.53;5037744;28;20063;-73
2023/12/05 05:02:07;;;;;;;23.20;15.82;;;;;;;2.11;100.00;99998.06;5037721;28;20106;-73
2023/12/05 05:04:33;;;;;;;25.75;16.90;;;;;;;2.05;100.00;100000.78;5037482;28;20392;-73
2023/12/05 05:06:58;;;;;;;26.55;17.13;;;;;;;2.02;100.00;100006.88;5037327;28;20029;-73
2023/12/05 05:09:23;;;;;;;25.75;17.08;;;;;;;2.03;100.00;100010.31;5037696;28;20368;-72
2023/12/05 05:11:49;;;;;;;26.33;16.27;;;;;;;2.02;100.00;100009.47;5037061;28;20037;-73
2023/12/05 05:14:14;;;;;;;27.00;17.38;;;;;;;2.02;100.00;100004.28;5037865;28;20043;-73
2023/12/05 05:16:39;;;;;;;28.95;16.95;;;;;;;2.05;100.00;100003.38;5036555;28;20124;-73
2023/12/05 05:19:05;;;;;;;27.80;16.42;;;;;;;2.02;100.00;100008.59;5037554;28;20048;-73
2023/12/05 05:21:30;;;;;;;26.27;16.52;;;;;;;2.04;100.00;100006.84;5037175;28;20118;-73
2023/12/05 05:23:56;;;;;;;27.05;16.55;;;;;;;2.04;100.00;100012.84;5037775;28;20362;-73
2023/12/05 05:26:21;;;;;;;28.77;16.45;;;;;;;1.99;100.00;100011.25;5037204;28;20401;-73
2023/12/05 05:28:46;;;;;;;26.55;16.80;;;;;;;1.98;100.00;100012.94;5037216;28;20068;-73
2023/12/05 05:31:12;;;;;;;29.30;17.75;;;;;;;2.02;100.00;100024.06;5036996;28;20108;-73
2023/12/05 05:33:37;;;;;;;29.80;17.70;;;;;;;1.96;100.00;100019.03;5037130;28;20382;-73
2023/12/05 05:36:03;;;;;;;27.70;17.35;;;;;;;1.95;100.00;100019.91;5036655;28;20096;-73
2023/12/05 05:38:28;;;;;;;29.85;17.38;;;;;;;2.00;100.00;100023.25;5036755;28;20337;-73
2023/12/05 05:41:03;;;;;;;30.33;17.83;;;;;;;2.05;100.00;100016.28;5037105;28;20025;-73
2023/12/05 05:43:29;;;;;;;32.63;17.77;;;;;;;2.04;100.00;100018.03;5036650;28;20049;-73
2023/12/05 05:45:54;;;;;;;30.17;18.08;;;;;;;2.03;100.00;100023.22;5036826;28;20086;-73
2023/12/05 05:48:19;;;;;;;30.70;17.33;;;;;;;2.05;100.00;100024.88;5036547;28;20036;-73
2023/12/05 05:50:44;;;;;;;32.28;18.38;;;;;;;2.04;100.00;100028.34;5035789;28;20119;-73
2023/12/05 05:53:10;;;;;;;33.17;18.23;;;;;;;2.04;100.00;100030.09;5036916;28;20052;-73
2023/12/05 05:55:35;;;;;;;31.15;18.23;;;;;;;1.99;100.00;100026.75;5036469;28;20040;-73
2023/12/05 05:58:01;;;;;;;33.70;19.48;;;;;;;2.01;100.00;100028.41;5036326;28;20076;-73
2023/12/05 06:00:26;;;;;;;32.75;18.92;;;;;;;2.02;100.00;100034.41;5036256;28;20032;-73
2023/12/05 06:02:52;;;;;;;33.25;17.88;;;;;;;1.97;100.00;100031.94;5035959;28;20071;-73
2023/12/05 06:05:17;;;;;;;31.13;18.42;;;;;;;1.87;100.00;100044.16;5034296;28;20325;-73
2023/12/05 06:07:42;;;;;;;35.35;20.50;;;;;;;1.89;100.00;100042.41;5035601;28;20045;-73
2023/12/05 06:10:08;;;;;;;33.53;19.15;;;;;;;1.93;100.00;100043.19;5036679;28;20103;-72
2023/12/05 06:12:33;;;;;;;29.60;18.67;;;;;;;1.96;100.00;100037.13;5035718;28;20049;-72
2023/12/05 06:14:59;;;;;;;29.55;18.38;;;;;;;1.95;100.00;100046.59;5036368;28;20037;-73
2023/12/05 06:17:24;;;;;;;35.03;19.42;;;;;;;1.96;100.00;100050.88;5035878;28;20422;-73
2023/12/05 06:19:50;;;;;;;31.80;18.80;;;;;;;1.84;100.00;100049.38;5035996;28;20059;-73
2023/12/05 06:22:15;;;;;;;31.67;18.83;;;;;;;1.89;100.00;100050.16;5034167;28;20529;-73
2023/12/05 06:24:40;;;;;;;32.08;18.55;;;;;;;1.88;100.00;100057.91;5034909;28;20766;-73
2023/12/05 06:27:06;;;;;;;31.27;18.45;;;;;;;1.84;100.00;100058.84;5034443;28;20041;-73
2023/12/05 06:29:32;;;;;;;32.55;19.05;;;;;;;1.83;100.00;100063.16;5034479;28;20076;-73
2023/12/05 06:31:57;;;;;;;32.58;18.60;;;;;;;1.91;100.00;100069.03;5034630;28;20108;-73
2023/12/05 06:34:24;;;;;;;35.05;19.60;;;;;;;1.89;100.00;100062.19;5034861;28;20037;-73
2023/12/05 06:36:49;;;;;;;35.85;18.75;;;;;;;1.94;100.00;100073.28;5035387;28;20033;-73
2023/12/05 06:39:14;;;;;;;29.40;18.92;;;;;;;1.85;100.00;100071.72;5035395;28;20041;-73
2023/12/05 06:41:40;;;;;;;33.40;19.65;;;;;;;1.84;100.00;100082.94;5035896;28;20060;-73
2023/12/05 06:44:05;;;;;;;39.28;21.13;;;;;;;1.80;100.00;100083.00;5035568;28;20037;-73
2023/12/05 06:46:30;;;;;;;31.30;18.73;;;;;;;1.83;100.00;100083.81;5035180;28;20033;-73
2023/12/05 06:48:57;;;;;;;33.33;19.13;;;;;;;1.82;100.00;100096.72;5035922;28;20041;-73
2023/12/05 06:51:23;;;;;;;32.95;19.83;;;;;;;1.82;100.00;100095.03;5035511;28;20037;-73
2023/12/05 06:53:48;;;;;;;32.05;18.85;;;;;;;1.75;100.00;100098.59;5035308;28;20025;-73
2023/12/05 06:56:15;;;;;;;32.03;18.58;;;;;;;1.77;100.00;100107.16;5035518;28;20029;-73
2023/12/05 06:58:41;;;;;;;31.45;18.75;;;;;;;1.75;100.00;100108.03;5035345;28;20041;-73
2023/12/05 07:01:07;;;;;;;32.67;18.50;;;;;;;1.78;100.00;100126.06;5035104;28;20088;-73
2023/12/05 07:03:32;;;;;;;32.95;19.90;;;;;;;1.73;100.00;100123.56;5035206;28;20240;-73
2023/12/05 07:05:58;;;;;;;34.28;20.15;;;;;;;1.76;100.00;100127.81;5017482;28;20079;-73
2023/12/05 07:08:24;;;;;;;30.35;18.02;;;;;;;1.79;100.00;100130.38;5035484;28;20052;-73
2023/12/05 07:10:49;;;;;;;28.00;17.75;;;;;;;1.71;100.00;100133.03;5035134;28;20045;-73
2023/12/05 07:13:15;;;;;;;29.25;18.13;;;;;;;1.76;100.00;100131.25;5018956;28;20033;-73
2023/12/05 07:15:41;;;;;;;31.60;18.33;;;;;;;1.73;100.00;100132.16;5034707;28;20033;-73
2023/12/05 07:18:06;;;;;;;30.15;18.08;;;;;;;1.76;100.00;100139.00;5034669;28;20275;-73
2023/12/05 07:20:31;;;;;;;31.02;17.70;;;;;;;1.84;100.00;100136.31;5033697;28;20037;-73
2023/12/05 07:22:57;;;;;;;29.77;17.50;;;;;;;1.81;100.00;100137.19;5033849;28;20383;-73
2023/12/05 07:25:22;;;;;;;29.55;17.88;;;;;;;1.80;100.00;100142.38;5035323;28;20065;-73
2023/12/05 07:27:47;;;;;;;31.83;18.05;;;;;;;1.80;100.00;100153.59;5043938;28;20028;-73
2023/12/05 07:30:13;;;;;;;29.88;18.00;;;;;;;1.79;100.00;100145.84;5041234;28;20300;-73
2023/12/05 07:32:39;;;;;;;32.50;18.65;;;;;;;1.77;100.00;100153.63;5037627;28;20244;-73
2023/12/05 07:35:04;;;;;;;31.50;17.70;;;;;;;1.74;100.00;100153.66;5028144;28;20376;-73
2023/12/05 07:37:30;;;;;;;33.60;19.45;;;;;;;1.76;100.00;100158.81;5036490;28;20051;-73
2023/12/05 07:39:55;;;;;;;30.77;18.60;;;;;;;1.79;100.00;100154.44;5033074;28;20037;-73
2023/12/05 07:42:21;;;;;;;33.47;19.33;;;;;;;1.75;100.00;100167.41;5034518;28;20033;-73
2023/12/05 07:44:46;;;;;;;37.08;20.25;;;;;;;1.68;100.00;100164.94;5033810;28;20356;-72
2023/12/05 07:47:12;;;;;;;31.55;18.67;;;;;;;1.78;100.00;100167.38;5039681;28;20038;-72
2023/12/05 07:49:37;;;;;;;32.63;19.00;;;;;;;1.78;100.00;100159.63;5038831;28;20065;-72
2023/12/05 07:52:04;;;;;;;31.83;19.13;;;;;;;1.77;100.00;100166.53;5042593;28;20044;-72
2023/12/05 07:54:29;;;;;;;38.63;20.80;;;;;;;1.79;100.00;100169.94;5040922;28;20036;-72
2023/12/05 07:56:55;;;;;;;39.50;21.50;;;;;;;1.80;100.00;100176.81;5034308;28;20096;-72
2023/12/05 07:59:21;;;;;;;35.42;21.08;;;;;;;1.74;100.00;100184.66;5035599;28;20029;-72
2023/12/05 08:01:46;;;;;;;34.80;19.92;;;;;;;1.69;100.00;100187.31;5033070;28;20037;-72
2023/12/05 08:04:12;;;;;;;38.20;20.85;;;;;;;1.71;100.00;100190.72;5034269;28;20025;-72
2023/12/05 08:06:37;;;;;;;39.50;21.42;;;;;;;1.67;100.00;100193.34;5032605;28;20100;-72
2023/12/05 08:09:02;;;;;;;35.17;20.63;;;;;;;1.69;100.00;100196.75;5033543;28;20045;-72
2023/12/05 08:11:28;;;;;;;35.38;21.40;;;;;;;1.71;100.00;100207.91;5033443;28;20067;-72
2023/12/05 08:13:53;;;;;;;37.13;21.48;;;;;;;1.70;100.00;100209.66;5033536;28;20397;-72
2023/12/05 08:16:19;;;;;;;34.67;20.42;;;;;;;1.78;100.00;100206.09;5032852;28;20221;-72
2023/12/05 08:18:46;;;;;;;39.15;21.95;;;;;;;1.75;100.00;100212.19;5032674;28;20043;-72
2023/12/05 08:21:11;;;;;;;40.45;22.77;;;;;;;1.73;100.00;100213.94;5032850;28;20037;-72
2023/12/05 08:23:37;;;;;;;36.75;20.45;;;;;;;1.71;100.00;100216.53;5024211;28;20059;-72
2023/12/05 08:26:03;;;;;;;40.15;21.67;;;;;;;1.69;100.00;100212.25;5032379;28;20076;-72
2023/12/05 08:28:29;;;;;;;43.83;21.33;;;;;;;1.71;100.00;100218.25;5033313;28;20041;-72
2023/12/05 08:30:54;;;;;;;45.38;21.50;;;;;;;1.77;100.00;100219.91;5034122;28;20079;-72
2023/12/05 08:33:20;;;;;;;39.08;21.08;;;;;;;1.82;100.00;100229.28;5033816;28;20296;-72
2023/12/05 08:35:45;;;;;;;39.50;21.77;;;;;;;1.84;100.00;100232.69;5033921;28;20044;-72
2023/12/05 08:38:11;;;;;;;38.17;20.42;;;;;;;1.85;100.00;100224.06;5033753;28;20033;-72
2023/12/05 08:40:38;;;;;;;37.78;19.30;;;;;;;1.91;100.00;100231.75;5033587;28;20041;-72
2023/12/05 08:43:03;;;;;;;40.50;20.63;;;;;;;1.83;100.00;100230.97;5033081;28;20253;-72
2023/12/05 08:45:29;;;;;;;33.90;19.48;;;;;;;1.82;100.00;100243.91;5032789;28;20033;-72
2023/12/05 08:47:55;;;;;;;38.75;20.95;;;;;;;1.81;100.00;100242.22;5032855;28;20040;-72
2023/12/05 08:50:21;;;;;;;37.53;20.88;;;;;;;1.87;100.00;100245.56;5014737;28;20137;-72
2023/12/05 08:52:47;;;;;;;35.30;20.60;;;;;;;1.85;100.00;100255.03;5031465;28;20078;-72
2023/12/05 08:55:13;;;;;;;35.47;19.73;;;;;;;1.89;100.00;100256.72;5032470;28;20057;-72
2023/12/05 08:57:38;;;;;;;36.83;20.25;;;;;;;1.91;100.00;100257.56;5032079;28;20324;-72
2023/12/05 09:00:04;;;;;;;39.00;21.83;;;;;;;1.83;100.00;100261.13;5030383;28;20225;-72
2023/12/05 09:02:31;;;;;;;42.20;23.25;;;;;;;1.78;100.00;100263.75;5030050;28;20041;-72
2023/12/05 09:04:56;;;;;;;41.63;22.17;;;;;;;1.82;100.00;100262.84;5031312;28;20190;-72
2023/12/05 09:07:22;;;;;;;43.25;24.15;;;;;;;1.83;100.00;100261.97;5031870;28;20041;-72
2023/12/05 09:09:48;;;;;;;43.65;23.25;;;;;;;1.80;100.00;100264.63;5032853;28;20029;-72
2023/12/05 09:12:14;;;;;;;41.97;22.60;;;;;;;1.79;100.00;100264.63;5033223;28;20391;-72
2023/12/05 09:14:40;;;;;;;41.65;22.25;;;;;;;1.79;100.00;100259.47;5032441;28;20037;-72
2023/12/05 09:17:09;;;;;;;45.10;23.10;;;;;;;1.79;100.00;100269.78;5032414;28;20317;-72
2023/12/05 09:19:34;;;;;;;;;;;;;;;1.77;100.00;100267.22;5033318;28;20041;-72
2023/12/05 09:21:59;;;;;;;41.78;20.65;;;;;;;1.76;100.00;100264.66;5032132;28;19963;-72
2023/12/05 09:24:24;;;;;;;42.75;22.98;;;;;;;1.82;100.00;100274.88;5033100;28;20033;-72
2023/12/05 09:26:50;;;;;;;43.05;21.52;;;;;;;1.80;100.00;100274.94;5032958;28;20025;-72
2023/12/05 09:29:16;;;;;;;46.00;22.60;;;;;;;1.81;100.00;100275.78;5033121;28;20127;-72
2023/12/05 09:31:41;;;;;;;43.17;21.75;;;;;;;1.69;100.00;100295.72;5031809;28;20037;-72
2023/12/05 09:34:07;;;;;;;47.45;22.50;;;;;;;1.66;100.00;100284.59;5032441;28;20108;-72
2023/12/05 09:36:32;;;;;;;43.13;21.90;;;;;;;1.72;100.00;100293.09;5031400;28;20379;-72
2023/12/05 09:38:57;;;;;;;42.35;21.95;;;;;;;1.72;100.00;100295.66;5033153;28;20092;-72
2023/12/05 09:41:23;;;;;;;48.92;21.65;;;;;;;1.71;100.00;100304.31;5032514;28;20045;-72
2023/12/05 09:43:52;;;;;;;47.00;22.30;;;;;;;1.75;100.00;100306.81;5035457;28;20115;-72
2023/12/05 09:46:21;;;;;;;49.85;22.30;;;;;;;1.78;100.00;100310.22;5036248;28;20045;-72
2023/12/05 09:48:47;;;;;;;46.72;22.58;;;;;;;1.88;100.00;100317.00;5018445;28;20025;-72
2023/12/05 09:51:15;;;;;;;52.92;23.77;;;;;;;1.84;100.00;100328.25;5035972;28;20276;-72
2023/12/05 09:53:43;;;;;;;49.80;22.70;;;;;;;1.80;100.00;100329.16;5036312;28;20029;-72
2023/12/05 09:56:10;;;;;;;45.97;23.67;;;;;;;1.79;100.00;100326.59;5035635;28;20036;-72
2023/12/05 09:58:39;;;;;;;54.10;23.25;;;;;;;1.84;100.00;100335.13;5036687;28;20033;-72
2023/12/05 10:01:05;;;;;;;48.95;23.17;;;;;;;1.83;100.00;100344.59;5036148;28;20150;-72
2023/12/05 10:03:34;;;;;;;53.45;22.52;;;;;;;1.71;100.00;100337.88;5036284;28;20034;-72
2023/12/05 10:06:02;;;;;;;;;;;;;;;1.76;100.00;100340.38;5036147;28;20025;-72
2023/12/05 10:08:29;;;;;;;50.00;23.08;;;;;;;1.76;100.00;100344.69;5035414;28;19924;-72
2023/12/05 10:10:57;;;;;;;52.22;23.77;;;;;;;1.78;100.00;100353.28;5036075;28;20032;-72
2023/12/05 10:13:23;;;;;;;51.47;21.50;;;;;;;1.76;100.00;100347.28;5036459;28;20048;-72
2023/12/05 10:15:48;;;;;;;50.55;24.10;;;;;;;1.78;100.00;100354.13;5034751;28;20156;-72
2023/12/05 10:18:14;;;;;;;62.15;24.58;;;;;;;1.78;100.00;100353.28;5035859;28;20398;-72
2023/12/05 10:20:40;;;;;;;52.88;25.27;;;;;;;1.78;100.00;100359.28;5035075;28;20060;-72
2023/12/05 10:23:05;;;;;;;54.53;24.65;;;;;;;1.82;100.00;100355.81;5035590;28;20111;-72
2023/12/05 10:25:30;;;;;;;55.08;25.58;;;;;;;1.83;100.00;100360.09;5034249;28;20041;-72
2023/12/05 10:28:03;;;;;;;56.60;27.45;;;;;;;1.73;100.00;100356.78;5036267;28;20354;-72
2023/12/05 10:30:37;;;;;;;55.28;26.27;;;;;;;1.72;100.00;100364.53;5034849;28;20048;-72
2023/12/05 10:33:17;;;;;;;53.90;27.08;;;;;;;1.66;100.00;100378.38;5033969;28;20057;-72
2023/12/05 10:35:44;;;;;;;57.72;26.73;;;;;;;1.69;100.00;100369.72;5034290;28;20021;-72
2023/12/05 10:38:14;;;;;;;55.88;26.30;;;;;;;1.71;100.00;100371.44;5035772;28;20097;-72
2023/12/05 10:41:01;;;;;;;54.42;27.35;;;;;;;1.72;100.00;100375.69;5034811;28;20033;-72
2023/12/05 10:43:28;;;;;;;56.33;26.55;;;;;;;1.77;100.00;100382.56;5035391;28;20175;-72
2023/12/05 10:45:54;;;;;;;53.67;27.08;;;;;;;1.73;100.00;100379.16;5034144;28;20041;-72
2023/12/05 10:48:23;;;;;;;56.72;26.50;;;;;;;1.69;100.00;100382.63;5034890;28;20108;-72
2023/12/05 10:50:51;;;;;;;56.03;27.33;;;;;;;1.74;100.00;100386.03;5034949;28;20393;-72
2023/12/05 10:53:17;;;;;;;49.97;26.27;;;;;;;1.77;100.00;100386.00;5034388;28;20026;-72
2023/12/05 10:55:43;;;;;;;57.03;27.10;;;;;;;1.70;100.00;100394.69;5033884;28;20044;-72
2023/12/05 10:58:09;;;;;;;44.47;24.42;;;;;;;1.69;100.00;100387.78;5035126;28;20079;-72
2023/12/05 11:00:36;;;;;;;54.17;26.58;;;;;;;1.77;100.00;100403.22;5033959;28;20045;-72
2023/12/05 11:03:05;;;;;;;50.15;24.98;;;;;;;1.70;100.00;100402.44;5034963;28;20238;-72
2023/12/05 11:05:31;;;;;;;53.72;26.70;;;;;;;1.69;100.00;100400.69;5034100;28;20045;-72
2023/12/05 11:07:57;;;;;;;55.00;26.83;;;;;;;1.67;100.00;100398.16;5034581;28;20041;-72
2023/12/05 11:10:27;;;;;;;50.50;23.90;;;;;;;1.63;100.00;100393.88;5034448;28;20360;-72